createdAt,value
2022-12-25T00:24:57.879Z,12.13
2022-12-25T00:55:02.095Z,10.48
2022-12-25T01:25:07.115Z,11.38
2022-12-25T01:55:18.321Z,19.27
2022-12-25T02:25:34.607Z,9.82
2022-12-25T02:55:57.890Z,10.98
2022-12-25T03:26:19.670Z,14.90
2022-12-25T03:56:41.316Z,17.17
2022-12-25T04:27:02.951Z,16.48
2022-12-25T04:57:07.039Z,16.70
2022-12-25T05:27:11.167Z,13.48
2022-12-25T05:57:15.202Z,12.25
2022-12-25T06:27:19.189Z,10.73
2022-12-25T06:57:23.203Z,9.75
2022-12-25T07:27:27.220Z,11.30
2022-12-25T07:57:31.249Z,12.15
2022-12-25T08:27:36.396Z,10.75
2022-12-25T08:57:40.440Z,9.20
2022-12-25T09:27:46.794Z,9.40
2022-12-25T09:57:53.077Z,6.13
2022-12-25T10:28:00.953Z,7.05
2022-12-25T10:58:06.879Z,6.45
2022-12-25T11:28:13.334Z,4.97
2022-12-25T12:28:24.110Z,3.83
2022-12-25T12:58:33.434Z,7.63
2022-12-25T13:28:37.804Z,8.00
2022-12-25T13:58:42.029Z,7.15
2022-12-25T14:28:49.834Z,4.05
2022-12-25T14:58:56.772Z,7.43
2022-12-25T15:29:02.024Z,5.68
2022-12-25T15:59:06.022Z,10.40
2022-12-25T16:29:10.162Z,15.20
2022-12-25T16:59:14.305Z,8.77
2022-12-25T17:29:22.304Z,8.70
2022-12-25T17:59:29.438Z,9.73
2022-12-25T18:29:33.421Z,6.85
2022-12-25T18:59:37.687Z,9.27
2022-12-25T19:29:41.735Z,7.45
2022-12-25T19:59:45.725Z,6.50
2022-12-25T20:29:49.782Z,6.45
2022-12-25T20:59:54.503Z,6.72
2022-12-25T21:29:58.522Z,6.05
2022-12-25T22:00:19.822Z,4.80
2022-12-25T22:30:25.786Z,5.93
2022-12-25T23:00:29.755Z,3.78
2022-12-25T23:30:34.250Z,5.47
